Time;durP1;ratioP1;P1;durP2;ratioP2;P2;SDS_P1;SDS_P2;PMS_P1;PMS_P2;Temp;Humidity;BMP_temperature;BMP_pressure;BME280_temperature;BME280_humidity;BME280_pressure;Samples;Min_cycle;Max_cycle;Signal;HPM_P1;HPM_P2
2022/04/28 00:00:20;;;;;;;1.00;0.90;;;;;;;12.75;46.20;102161.44;5118848;28;20060;-81
2022/04/28 00:02:51;;;;;;;1.38;0.73;;;;;;;12.86;45.91;102156.00;5133151;28;20429;-81
2022/04/28 00:05:23;;;;;;;0.77;0.77;;;;;;;12.85;46.40;102163.03;5118382;28;20044;-81
2022/04/28 00:07:54;;;;;;;1.92;1.83;;;;;;;12.87;46.19;102169.16;5134969;28;20033;-81
2022/04/28 00:10:25;;;;;;;1.15;1.05;;;;;;;12.87;46.26;102161.25;5120471;28;20022;-81
2022/04/28 00:13:00;;;;;;;0.60;0.60;;;;;;;12.68;46.54;102160.63;5168674;28;20433;-80
2022/04/28 00:15:31;;;;;;;1.55;1.33;;;;;;;12.63;46.49;102158.94;5136827;28;20040;-81
2022/04/28 00:18:02;;;;;;;0.80;0.80;;;;;;;12.73;45.98;102168.47;5115273;28;20023;-81
2022/04/28 00:20:32;;;;;;;1.13;1.13;;;;;;;12.67;46.41;102161.50;5117921;28;20559;-80
2022/04/28 00:23:07;;;;;;;0.60;0.60;;;;;;;12.53;46.38;102164.31;5130672;28;20022;-81
2022/04/28 00:25:38;;;;;;;0.70;0.70;;;;;;;12.52;46.52;102159.94;5122722;28;20110;-80
2022/04/28 00:28:08;;;;;;;1.05;0.95;;;;;;;12.54;46.06;102160.78;5125970;28;20178;-81
2022/04/28 00:30:39;;;;;;;0.43;0.43;;;;;;;12.55;46.32;102154.63;5137972;28;20015;-81
2022/04/28 00:33:09;;;;;;;0.68;0.68;;;;;;;12.55;46.69;102154.63;5138725;28;20260;-81
2022/04/28 00:35:40;;;;;;;1.27;1.20;;;;;;;12.43;46.53;102153.03;5123541;28;20270;-80
2022/04/28 00:38:11;;;;;;;0.73;0.73;;;;;;;12.49;46.58;102153.84;5135090;28;20082;-80
2022/04/28 00:40:43;;;;;;;0.70;0.70;;;;;;;12.43;47.15;102154.81;5134429;28;20417;-81
2022/04/28 00:43:19;;;;;;;0.77;0.77;;;;;;;12.45;46.53;102158.25;5135458;28;20042;-80
2022/04/28 00:45:50;;;;;;;0.60;0.60;;;;;;;12.41;46.41;102152.16;5139187;28;20209;-78
2022/04/28 00:51:12;;;;;;;1.23;1.13;;;;;;;12.34;47.02;102152.28;5151641;28;20054;-81
2022/04/28 00:53:46;;;;;;;0.65;0.65;;;;;;;12.33;46.96;102154.03;5133927;28;20095;-81
2022/04/28 00:56:17;;;;;;;;;;;;;;;12.35;47.11;102156.66;5133242;28;20029;-81
2022/04/28 00:58:49;;;;;;;0.63;0.63;;;;;;;12.34;47.20;102154.91;5106865;28;19925;-81
2022/04/28 01:01:20;;;;;;;1.27;1.17;;;;;;;12.23;46.87;102163.78;5131907;28;20030;-81
2022/04/28 01:03:51;;;;;;;0.43;0.43;;;;;;;12.23;47.03;102155.88;5147280;28;20389;-81
2022/04/28 01:06:22;;;;;;;1.02;1.02;;;;;;;12.21;46.97;102157.66;5149341;28;20065;-81
2022/04/28 01:08:57;;;;;;;0.77;0.73;;;;;;;12.19;47.12;102162.06;5131538;28;20642;-81
2022/04/28 01:11:28;;;;;;;1.75;1.27;;;;;;;12.16;46.71;102162.13;5142286;28;20427;-80
2022/04/28 01:13:58;;;;;;;0.55;0.55;;;;;;;12.11;47.28;102158.63;5114936;28;20110;-81
2022/04/28 01:16:29;;;;;;;1.63;0.68;;;;;;;12.14;47.02;102157.75;5116762;28;20129;-81
2022/04/28 01:19:02;;;;;;;0.70;0.68;;;;;;;12.01;47.56;102168.41;5115566;28;20649;-81
2022/04/28 01:21:33;;;;;;;0.50;0.50;;;;;;;12.07;47.71;102157.81;5130782;28;20038;-82
2022/04/28 01:24:04;;;;;;;6.13;2.60;;;;;;;12.03;47.66;102163.09;5119734;28;20035;-82
2022/04/28 01:26:36;;;;;;;1.38;1.27;;;;;;;11.92;47.58;102166.72;5116351;28;20054;-81
2022/04/28 01:29:07;;;;;;;0.82;0.82;;;;;;;11.89;48.05;102168.50;5113999;28;20081;-80
2022/04/28 01:31:40;;;;;;;0.85;0.82;;;;;;;11.98;48.28;102172.81;5112779;28;20130;-81
2022/04/28 01:34:10;;;;;;;0.65;0.65;;;;;;;11.92;47.29;102173.72;5114988;28;20612;-81
2022/04/28 01:36:41;;;;;;;1.10;1.10;;;;;;;11.87;47.78;102176.38;5113767;28;20030;-81
2022/04/28 01:39:11;;;;;;;1.05;1.05;;;;;;;11.85;47.74;102170.28;5111004;28;20046;-81
2022/04/28 01:41:42;;;;;;;1.48;0.75;;;;;;;11.74;47.87;102172.97;5141561;28;20561;-81
2022/04/28 01:44:13;;;;;;;0.50;0.50;;;;;;;11.68;48.46;102174.81;5143877;28;20054;-81
2022/04/28 01:46:44;;;;;;;1.10;1.10;;;;;;;11.68;47.79;102174.81;5145470;28;20026;-80
2022/04/28 01:49:15;;;;;;;0.77;0.77;;;;;;;11.74;47.79;102174.75;5133199;28;20043;-81
2022/04/28 01:57:28;;;;;;;0.60;0.60;;;;;;;11.55;48.50;102172.28;5148131;28;20030;-81
2022/04/28 01:59:59;;;;;;;1.00;0.95;;;;;;;11.55;48.61;102169.63;5129151;28;20042;-81
2022/04/28 02:02:31;;;;;;;0.95;0.95;;;;;;;11.55;48.79;102179.31;5115661;28;20042;-80
2022/04/28 02:05:03;;;;;;;0.60;0.60;;;;;;;11.55;48.34;102174.03;5113222;28;20049;-81
2022/04/28 02:07:34;;;;;;;0.85;0.85;;;;;;;11.49;48.82;102175.81;5134231;28;20037;-81
2022/04/28 02:10:07;;;;;;;1.13;1.02;;;;;;;11.42;48.16;102173.25;5126090;28;20038;-80
2022/04/28 02:12:42;;;;;;;0.47;0.47;;;;;;;11.32;48.76;102173.31;5112559;28;20082;-80
2022/04/28 02:15:13;;;;;;;1.75;1.33;;;;;;;11.19;49.81;102171.66;5148855;28;20162;-80
2022/04/28 02:17:43;;;;;;;0.40;0.40;;;;;;;11.32;48.93;102175.09;5149636;28;20057;-81
2022/04/28 02:20:14;;;;;;;1.15;0.88;;;;;;;11.29;49.84;102167.22;5132803;28;20034;-80
2022/04/28 02:22:44;;;;;;;6.65;1.25;;;;;;;11.16;49.95;102177.78;5117230;28;20155;-80
2022/04/28 02:25:15;;;;;;;0.45;0.45;;;;;;;11.25;49.18;102174.25;5132419;28;20045;-80
2022/04/28 02:27:45;;;;;;;0.50;0.50;;;;;;;11.25;49.02;102181.25;5148523;28;20045;-80
2022/04/28 02:30:19;;;;;;;3.25;1.58;;;;;;;11.20;50.25;102178.66;5130706;28;20117;-81
2022/04/28 02:33:10;;;;;;;1.27;1.17;;;;;;;11.25;48.77;102176.88;5124051;28;20045;-80
2022/04/28 02:35:41;;;;;;;2.20;1.58;;;;;;;11.19;49.35;102179.56;5127776;28;20042;-80
2022/04/28 02:38:14;;;;;;;1.08;1.02;;;;;;;11.14;49.41;102173.44;5112239;28;20104;-80
2022/04/28 02:40:45;;;;;;;;;;;;;;;11.18;49.46;102175.19;5128890;28;20264;-80
2022/04/28 02:43:19;;;;;;;1.17;1.15;;;;;;;11.13;49.29;102176.94;5125979;28;19914;-80
2022/04/28 02:45:49;;;;;;;0.55;0.55;;;;;;;11.07;49.70;102182.25;5129595;28;20447;-80
2022/04/28 02:48:20;;;;;;;1.70;1.60;;;;;;;11.05;49.18;102184.00;5111042;28;20038;-80
2022/04/28 02:50:50;;;;;;;0.80;0.65;;;;;;;11.01;50.48;102180.50;5161087;28;20083;-81
2022/04/28 02:53:23;;;;;;;0.65;0.65;;;;;;;11.01;49.89;102178.78;5108232;28;20093;-80
2022/04/28 02:55:54;;;;;;;0.47;0.47;;;;;;;10.96;49.04;102177.91;5130410;28;20034;-81
2022/04/28 02:58:24;;;;;;;0.93;0.93;;;;;;;10.94;49.30;102173.56;5126538;28;20413;-80
2022/04/28 03:00:55;;;;;;;2.85;1.33;;;;;;;10.99;49.49;102175.28;5113377;28;20453;-81
2022/04/28 03:03:25;;;;;;;1.30;1.20;;;;;;;10.92;49.76;102173.56;5113312;28;20327;-80
2022/04/28 03:11:41;;;;;;;2.05;1.85;;;;;;;10.85;49.67;102177.13;5128118;28;20042;-81
2022/04/28 03:14:12;;;;;;;1.35;1.25;;;;;;;10.88;49.81;102170.97;5142994;28;20027;-80
2022/04/28 03:16:42;;;;;;;0.75;0.75;;;;;;;10.81;49.74;102175.38;5110301;28;20053;-81
2022/04/28 03:19:13;;;;;;;1.00;1.00;;;;;;;10.80;49.88;102171.88;5121341;28;20055;-80
2022/04/28 03:21:44;;;;;;;0.65;0.65;;;;;;;10.79;50.14;102177.13;5111430;28;20626;-80
2022/04/28 03:24:14;;;;;;;1.08;1.00;;;;;;;10.78;50.18;102180.66;5130705;28;20053;-80
2022/04/28 03:26:45;;;;;;;0.80;0.80;;;;;;;10.73;49.87;102177.16;5132102;28;20030;-80
2022/04/28 03:29:15;;;;;;;1.02;0.90;;;;;;;10.70;50.00;102183.28;5111450;28;20459;-80
2022/04/28 03:31:46;;;;;;;0.68;0.68;;;;;;;10.70;50.08;102173.66;5129129;28;20226;-80
2022/04/28 03:34:18;;;;;;;1.50;1.40;;;;;;;10.70;50.29;102181.53;5111035;28;20038;-80
2022/04/28 03:36:51;;;;;;;0.60;0.60;;;;;;;10.69;50.03;102181.53;5113983;28;20630;-81
2022/04/28 03:39:22;;;;;;;;;;;;;;;10.65;50.40;102185.06;5117332;28;20257;-80
2022/04/28 03:41:52;;;;;;;0.82;0.82;;;;;;;10.59;50.04;102185.06;5179645;28;19940;-80
2022/04/28 03:44:23;;;;;;;0.63;0.63;;;;;;;10.58;50.32;102188.59;5159619;28;20043;-80
2022/04/28 03:46:54;;;;;;;1.13;1.13;;;;;;;10.57;50.66;102185.09;5135025;28;20038;-81
2022/04/28 03:49:24;;;;;;;1.00;1.00;;;;;;;10.52;50.26;102189.50;5126778;28;20113;-80
2022/04/28 03:51:55;;;;;;;0.50;0.50;;;;;;;10.37;50.78;102187.78;5146121;28;20034;-80
2022/04/28 03:54:25;;;;;;;3.83;1.65;;;;;;;10.45;50.30;102183.38;5147059;28;20350;-82
2022/04/28 03:56:56;;;;;;;1.15;1.02;;;;;;;10.46;50.67;102189.50;5147016;28;20044;-81
2022/04/28 03:59:26;;;;;;;0.93;0.43;;;;;;;10.41;50.42;102183.41;5141212;28;20424;-81
2022/04/28 04:01:57;;;;;;;12.90;1.80;;;;;;;10.41;50.07;102186.03;5126855;28;20080;-81
2022/04/28 04:04:27;;;;;;;1.00;0.75;;;;;;;10.42;50.50;102193.03;5144813;28;20340;-81
2022/04/28 04:07:04;;;;;;;0.63;0.63;;;;;;;10.32;51.24;102194.78;5131817;28;20041;-80
2022/04/28 04:09:34;;;;;;;;;;;;;;;10.33;50.75;102189.50;5126514;28;20038;-81
2022/04/28 04:12:05;;;;;;;1.05;1.05;;;;;;;10.36;50.74;102186.88;5129518;28;20257;-81
2022/04/28 04:14:39;;;;;;;1.48;0.95;;;;;;;10.36;51.16;102194.75;5111555;28;20125;-81
2022/04/28 04:17:10;;;;;;;1.85;1.75;;;;;;;10.24;51.42;102202.66;5112041;28;20504;-81
2022/04/28 04:19:40;;;;;;;1.95;1.85;;;;;;;10.15;51.35;102197.41;5126729;28;20049;-81
2022/04/28 04:22:11;;;;;;;1.58;1.48;;;;;;;10.26;51.07;102193.03;5146228;28;20026;-80
2022/04/28 04:24:42;;;;;;;0.65;0.65;;;;;;;10.24;51.05;102194.78;5131085;28;20092;-80
2022/04/28 04:27:14;;;;;;;1.50;0.80;;;;;;;10.06;52.03;102196.53;5120643;28;20023;-80
2022/04/28 04:29:45;;;;;;;1.53;1.17;;;;;;;10.14;51.16;102195.66;5114961;28;20533;-81
2022/04/28 04:32:18;;;;;;;1.08;1.08;;;;;;;10.14;51.93;102199.16;5115196;28;20033;-81
2022/04/28 04:34:50;;;;;;;;;;;;;;;10.12;51.69;102203.53;5131569;28;20053;-81
2022/04/28 04:37:21;;;;;;;0.85;0.85;;;;;;;9.99;52.17;102202.69;5131729;28;20080;-82
2022/04/28 04:39:51;;;;;;;0.85;0.85;;;;;;;9.95;52.11;102208.81;5109666;28;20141;-80
2022/04/28 04:42:22;;;;;;;19.48;1.95;;;;;;;10.05;51.74;102213.16;5112973;28;20134;-81
2022/04/28 04:44:53;;;;;;;1.00;0.98;;;;;;;9.93;51.89;102213.19;5146911;28;20042;-81
2022/04/28 04:47:23;;;;;;;0.73;0.73;;;;;;;9.97;51.78;102209.66;5131472;28;20109;-81
2022/04/28 04:49:53;;;;;;;18.30;2.28;;;;;;;10.05;51.58;102215.78;5113786;28;20049;-81
2022/04/28 04:52:24;;;;;;;0.50;0.50;;;;;;;9.91;52.90;102215.81;5145862;28;20077;-81
2022/04/28 04:54:54;;;;;;;1.13;0.93;;;;;;;9.91;51.84;102217.53;5111286;28;20047;-81
2022/04/28 04:57:25;;;;;;;0.50;0.50;;;;;;;10.04;52.52;102221.88;5128233;28;20435;-80
2022/04/28 04:59:56;;;;;;;1.23;1.20;;;;;;;9.96;52.39;102230.66;5145764;28;20080;-81
2022/04/28 05:02:27;;;;;;;1.05;1.05;;;;;;;9.99;52.24;102231.53;5114809;28;20030;-80
2022/04/28 05:04:57;;;;;;;1.00;1.00;;;;;;;9.86;52.15;102237.66;5148187;28;20034;-80
2022/04/28 05:07:31;;;;;;;1.45;1.15;;;;;;;9.90;52.46;102239.38;5158403;28;20034;-80
2022/04/28 05:10:05;;;;;;;2.58;2.13;;;;;;;9.92;52.17;102243.75;5142105;28;20057;-80
2022/04/28 05:12:36;;;;;;;1.40;1.30;;;;;;;9.92;52.32;102241.13;5126812;28;20113;-80
2022/04/28 05:15:07;;;;;;;1.90;1.65;;;;;;;9.90;52.86;102249.88;5129923;28;20065;-80
2022/04/28 05:17:38;;;;;;;1.23;1.05;;;;;;;9.88;52.58;102254.22;5129143;28;20068;-80
2022/04/28 05:20:09;;;;;;;1.77;1.67;;;;;;;9.76;53.54;102240.25;5107225;28;20099;-80
2022/04/28 05:22:40;;;;;;;0.80;0.80;;;;;;;9.82;53.21;102249.00;5129695;28;20142;-80
2022/04/28 05:25:10;;;;;;;1.60;1.27;;;;;;;9.89;52.87;102253.38;5126901;28;20675;-80
2022/04/28 05:27:41;;;;;;;1.27;1.27;;;;;;;9.85;53.31;102260.34;5127850;28;20493;-80
2022/04/28 05:30:11;;;;;;;0.50;0.50;;;;;;;9.82;53.57;102252.50;5143352;28;20034;-80
2022/04/28 05:32:42;;;;;;;1.25;1.25;;;;;;;9.64;56.75;102260.34;5125870;28;20026;-80
2022/04/28 05:35:12;;;;;;;1.42;1.33;;;;;;;9.84;53.33;102255.13;5130341;28;20042;-80
2022/04/28 05:37:43;;;;;;;11.80;1.40;;;;;;;9.89;53.69;102259.50;5112973;28;20126;-80
2022/04/28 05:40:15;;;;;;;2.35;2.15;;;;;;;9.84;53.11;102253.34;5108855;28;20097;-80
2022/04/28 05:45:42;;;;;;;1.25;1.15;;;;;;;9.80;53.90;102256.88;5162515;28;20297;-80
2022/04/28 05:48:14;;;;;;;0.98;0.98;;;;;;;9.85;53.23;102259.50;5121817;28;20113;-80
2022/04/28 05:50:45;;;;;;;13.23;2.30;;;;;;;9.89;54.37;102255.97;5129127;28;20511;-80
2022/04/28 05:53:15;;;;;;;3.22;1.40;;;;;;;9.87;53.89;102269.09;5115987;28;20045;-80
2022/04/28 05:55:49;;;;;;;1.90;1.70;;;;;;;9.98;53.45;102266.47;5143213;28;20113;-80
2022/04/28 05:58:19;;;;;;;;;;;;;;;9.97;53.92;102269.97;5127919;28;20481;-80
2022/04/28 06:00:50;;;;;;;0.88;0.88;;;;;;;9.94;54.05;102275.22;5129473;28;19918;-80
2022/04/28 06:03:20;;;;;;;2.85;1.17;;;;;;;10.01;53.74;102282.22;5127046;28;20049;-80
2022/04/28 06:05:51;;;;;;;7.60;2.25;;;;;;;10.07;53.79;102278.75;5148363;28;20045;-80
2022/04/28 06:08:21;;;;;;;1.50;1.40;;;;;;;9.93;55.45;102276.97;5131206;28;20065;-80
2022/04/28 06:10:52;;;;;;;5.40;2.92;;;;;;;10.14;53.95;102290.06;5112776;28;20306;-80
2022/04/28 06:13:22;;;;;;;0.75;0.75;;;;;;;10.09;53.47;102290.06;5133705;28;20049;-80
2022/04/28 06:15:53;;;;;;;2.17;1.42;;;;;;;10.21;53.63;102294.44;5120500;28;20026;-80
2022/04/28 06:18:24;;;;;;;1.63;1.42;;;;;;;10.09;54.98;102290.06;5150013;28;20604;-80
2022/04/28 06:20:55;;;;;;;0.93;0.93;;;;;;;10.17;54.86;102295.34;5113134;28;20044;-80
2022/04/28 06:23:25;;;;;;;1.27;1.05;;;;;;;9.93;56.74;102300.56;5129232;28;20521;-82
2022/04/28 06:25:56;;;;;;;1.13;1.13;;;;;;;10.13;55.04;102296.19;5146795;28;20093;-82
2022/04/28 06:28:27;;;;;;;1.67;1.58;;;;;;;10.03;56.47;102290.09;5133443;28;20063;-81
2022/04/28 06:30:58;;;;;;;2.08;1.85;;;;;;;10.03;57.28;102295.31;5114711;28;20026;-82
2022/04/28 06:33:28;;;;;;;2.03;1.10;;;;;;;10.08;56.77;102294.47;5142547;28;20118;-82
2022/04/28 06:35:59;;;;;;;0.68;0.68;;;;;;;10.15;55.18;102295.34;5143990;28;20035;-83
2022/04/28 06:38:30;;;;;;;0.85;0.85;;;;;;;10.18;55.31;102294.47;5124246;28;20053;-81
2022/04/28 06:41:03;;;;;;;1.75;1.63;;;;;;;10.15;55.51;102300.59;5111781;28;20259;-81
2022/04/28 06:43:36;;;;;;;;;;;;;;;10.27;54.51;102298.81;5111939;28;20489;-81
2022/04/28 06:46:12;;;;;;;0.70;0.70;;;;;;;10.10;58.66;102304.09;5130122;28;19910;-81
2022/04/28 06:48:43;;;;;;;0.82;0.82;;;;;;;10.04;57.01;102297.94;5110763;28;20038;-81
2022/04/28 06:51:14;;;;;;;1.77;1.40;;;;;;;10.11;56.21;102298.81;5128231;28;20035;-82
2022/04/28 06:53:44;;;;;;;1.15;1.15;;;;;;;10.06;57.62;102300.59;5108716;28;20042;-81
2022/04/28 06:56:16;;;;;;;1.85;1.75;;;;;;;10.22;55.58;102301.44;5163046;28;20026;-80
2022/04/28 06:58:47;;;;;;;1.55;1.40;;;;;;;10.30;55.78;102306.69;5112428;28;20077;-81
2022/04/28 07:01:17;;;;;;;0.70;0.70;;;;;;;10.13;57.58;102304.94;5119810;28;20446;-82
2022/04/28 07:03:51;;;;;;;0.75;0.75;;;;;;;10.24;56.96;102316.34;5119778;28;20346;-82
2022/04/28 07:06:21;;;;;;;;;;;;;;;10.21;56.76;102326.81;5139784;28;20043;-81
2022/04/28 07:08:52;;;;;;;0.70;0.70;;;;;;;10.26;56.51;102318.94;5109444;28;19917;-82
2022/04/28 07:11:26;;;;;;;4.57;2.58;;;;;;;10.21;58.47;102325.91;5129522;28;20040;-81
2022/04/28 07:13:56;;;;;;;;;;;;;;;10.41;58.65;102322.47;5128697;28;20170;-81
2022/04/28 07:16:27;;;;;;;1.45;1.35;;;;;;;10.26;59.52;102325.94;5124372;28;19968;-81
2022/04/28 07:18:57;;;;;;;0.80;0.80;;;;;;;10.42;57.20;102337.34;5110407;28;20042;-82
2022/04/28 07:21:28;;;;;;;0.93;0.93;;;;;;;10.38;59.87;102329.44;5111908;28;20029;-82
2022/04/28 07:23:58;;;;;;;1.80;1.70;;;;;;;10.57;57.05;102337.31;5111751;28;20112;-81
2022/04/28 07:26:29;;;;;;;1.33;1.23;;;;;;;10.64;58.15;102331.19;5113025;28;20488;-82
2022/04/28 07:28:59;;;;;;;1.65;1.55;;;;;;;10.74;57.66;102339.03;5121540;28;20038;-81
2022/04/28 07:31:31;;;;;;;2.15;2.05;;;;;;;10.92;56.48;102346.91;5124064;28;20030;-82
2022/04/28 07:34:05;;;;;;;1.20;1.10;;;;;;;10.96;57.28;102343.38;5124778;28;20073;-82
2022/04/28 07:36:35;;;;;;;1.92;1.83;;;;;;;11.10;56.63;102347.72;5114521;28;20109;-81
2022/04/28 07:39:09;;;;;;;1.55;1.45;;;;;;;11.20;56.71;102359.91;5123127;28;20121;-82
2022/04/28 07:41:39;;;;;;;2.13;1.85;;;;;;;11.16;56.54;102366.09;5114302;28;20057;-82
2022/04/28 07:44:10;;;;;;;3.10;2.80;;;;;;;11.17;57.27;102358.19;5110448;28;20069;-82
2022/04/28 07:46:40;;;;;;;2.08;1.70;;;;;;;11.26;56.06;102357.31;5134984;28;20049;-82
2022/04/28 07:49:11;;;;;;;1.27;1.17;;;;;;;11.27;56.32;102359.06;5109163;28;20034;-82
2022/04/28 07:51:42;;;;;;;14.23;3.60;;;;;;;11.32;56.56;102361.66;5126164;28;20460;-81
2022/04/28 07:54:13;;;;;;;1.95;1.80;;;;;;;11.34;55.43;102360.78;5111042;28;20355;-82
2022/04/28 07:56:46;;;;;;;0.70;0.70;;;;;;;11.46;55.71;102364.22;5111695;28;20496;-82
2022/04/28 07:59:17;;;;;;;1.02;1.02;;;;;;;11.43;56.60;102370.34;5124432;28;20042;-81
2022/04/28 08:01:50;;;;;;;0.75;0.75;;;;;;;11.40;56.12;102370.38;5112745;28;20022;-81
2022/04/28 08:04:23;;;;;;;1.13;1.13;;;;;;;11.56;57.81;102365.91;5120639;28;20034;-81
2022/04/28 08:06:54;;;;;;;4.60;2.08;;;;;;;11.56;55.67;102367.69;5139839;28;20481;-81
2022/04/28 08:09:25;;;;;;;4.22;2.00;;;;;;;11.46;57.16;102369.47;5144623;28;20105;-82
2022/04/28 08:12:05;;;;;;;1.15;1.10;;;;;;;11.54;57.07;102372.06;5128756;28;20034;-82
2022/04/28 08:14:39;;;;;;;1.40;1.35;;;;;;;11.50;57.38;102377.34;5131708;28;20041;-82
2022/04/28 08:17:12;;;;;;;1.85;1.40;;;;;;;11.60;56.32;102375.56;5130346;28;20121;-82
2022/04/28 08:19:45;;;;;;;4.03;2.17;;;;;;;11.59;56.35;102371.19;5108354;28;20061;-82
2022/04/28 08:22:16;;;;;;;2.22;1.17;;;;;;;11.58;56.95;102377.31;5135960;28;20040;-81
2022/04/28 08:24:46;;;;;;;1.52;1.42;;;;;;;11.57;57.94;102380.81;5118987;28;20496;-80
2022/04/28 08:27:17;;;;;;;2.08;1.95;;;;;;;11.60;58.42;102383.44;5146261;28;20481;-80
2022/04/28 08:29:47;;;;;;;1.55;1.25;;;;;;;11.77;57.60;102372.81;5113059;28;20039;-81
2022/04/28 08:32:18;;;;;;;1.25;1.20;;;;;;;11.81;57.21;102381.56;5116670;28;20030;-81
2022/04/28 08:34:48;;;;;;;3.25;2.20;;;;;;;11.69;58.25;102382.50;5138367;28;20046;-80
2022/04/28 08:37:18;;;;;;;0.60;0.60;;;;;;;11.88;57.36;102377.16;5171313;28;20041;-80
2022/04/28 08:39:49;;;;;;;1.75;1.50;;;;;;;11.84;57.91;102381.56;5113268;28;20411;-81
2022/04/28 08:42:21;;;;;;;2.00;0.80;;;;;;;11.86;58.57;102373.66;5147856;28;20565;-81
2022/04/28 08:44:59;;;;;;;2.83;2.58;;;;;;;11.79;58.60;102383.31;5130919;28;20564;-80
2022/04/28 08:47:30;;;;;;;0.98;0.98;;;;;;;11.86;57.59;102374.50;5147908;28;20026;-81
2022/04/28 08:50:01;;;;;;;0.70;0.70;;;;;;;12.02;56.93;102374.47;5113037;28;20117;-81
2022/04/28 08:52:35;;;;;;;4.28;2.20;;;;;;;11.99;57.08;102385.00;5130812;28;20134;-81
2022/04/28 08:55:13;;;;;;;0.60;0.60;;;;;;;12.01;57.34;102388.50;5116131;28;20368;-80
2022/04/28 08:57:45;;;;;;;1.00;0.98;;;;;;;12.23;57.04;102391.88;5134044;28;20033;-80
2022/04/28 09:00:17;;;;;;;1.25;1.20;;;;;;;12.19;56.54;102388.38;5162770;28;20050;-80
2022/04/28 09:02:48;;;;;;;6.10;2.13;;;;;;;12.32;56.09;102389.16;5113418;28;20034;-81
2022/04/28 09:05:21;;;;;;;3.10;2.35;;;;;;;12.19;57.50;102391.00;5121290;28;20042;-81
2022/04/28 09:07:53;;;;;;;1.23;1.23;;;;;;;12.24;56.75;102394.47;5121078;28;20084;-80
2022/04/28 09:10:26;;;;;;;2.05;1.95;;;;;;;12.36;56.27;102392.63;5116753;28;20085;-79
2022/04/28 09:15:54;;;;;;;0.90;0.90;;;;;;;12.43;57.02;102392.56;5128716;28;20234;-80
2022/04/28 09:18:25;;;;;;;1.63;1.52;;;;;;;12.50;56.53;102398.69;5148574;28;20027;-80
2022/04/28 09:20:56;;;;;;;1.25;1.25;;;;;;;12.46;56.92;102389.03;5127733;28;20014;-80
2022/04/28 09:23:26;;;;;;;7.00;2.10;;;;;;;12.64;56.21;102387.13;5112131;28;20065;-80
2022/04/28 09:25:57;;;;;;;3.47;2.38;;;;;;;12.72;55.59;102388.84;5126538;28;20038;-80
2022/04/28 09:28:33;;;;;;;2.85;1.73;;;;;;;12.71;56.42;102388.81;5110133;28;20042;-79
2022/04/28 09:31:09;;;;;;;1.55;1.48;;;;;;;12.71;56.03;102396.72;5107766;28;20038;-80
2022/04/28 09:33:47;;;;;;;1.48;1.38;;;;;;;12.78;55.43;102387.88;5111808;28;20034;-79
2022/04/28 09:36:17;;;;;;;5.28;3.20;;;;;;;12.82;55.47;102389.59;5112943;28;20038;-80
2022/04/28 09:38:54;;;;;;;3.70;2.13;;;;;;;12.76;55.59;102389.69;5125143;28;20517;-80
2022/04/28 09:44:16;;;;;;;2.03;1.42;;;;;;;12.99;55.35;102380.66;5124733;28;20046;-79
2022/04/28 09:46:48;;;;;;;2.15;1.38;;;;;;;13.00;55.02;102379.78;5131375;28;20129;-80
2022/04/28 09:49:24;;;;;;;14.07;1.13;;;;;;;13.03;55.21;102382.34;5110078;28;20122;-80
2022/04/28 09:51:58;;;;;;;1.27;0.65;;;;;;;13.16;53.07;102385.72;5136775;28;20072;-81
2022/04/28 09:54:36;;;;;;;2.47;2.10;;;;;;;13.13;53.04;102384.00;5110353;28;20284;-81
2022/04/28 09:57:08;;;;;;;3.85;1.88;;;;;;;13.17;52.45;102379.56;5141717;28;20057;-80
2022/04/28 09:59:39;;;;;;;3.20;2.70;;;;;;;13.27;52.92;102380.31;5116214;28;20035;-81
2022/04/28 10:02:15;;;;;;;1.50;1.15;;;;;;;13.29;53.53;102381.19;5132835;28;20105;-80
2022/04/28 10:04:49;;;;;;;1.40;1.30;;;;;;;13.26;53.22;102375.97;5156800;28;20045;-80
2022/04/28 10:07:21;;;;;;;1.60;1.50;;;;;;;13.48;52.93;102373.94;5118125;28;20035;-80
2022/04/28 10:09:52;;;;;;;6.10;1.58;;;;;;;13.38;52.38;102374.09;5123688;28;20041;-80
2022/04/28 10:12:25;;;;;;;3.72;1.48;;;;;;;13.41;51.53;102373.19;5120363;28;20030;-80
2022/04/28 10:14:59;;;;;;;1.60;1.52;;;;;;;13.44;52.06;102370.47;5128050;28;20096;-80
2022/04/28 10:17:50;;;;;;;2.45;2.28;;;;;;;13.50;51.82;102377.44;5140182;28;20034;-80
2022/04/28 10:20:29;;;;;;;1.48;1.40;;;;;;;13.61;51.53;102370.28;5112421;28;20046;-81
2022/04/28 10:23:05;;;;;;;2.30;1.40;;;;;;;13.69;51.87;102368.41;5118908;28;20583;-81
2022/04/28 10:34:32;;;;;;;2.60;2.40;;;;;;;13.82;50.49;102369.13;5118557;28;20050;-81
2022/04/28 10:37:04;;;;;;;3.97;2.30;;;;;;;13.88;50.85;102370.78;5114302;28;20413;-81
2022/04/28 10:39:45;;;;;;;3.10;2.33;;;;;;;13.94;50.28;102380.38;5115998;28;20042;-81
2022/04/28 10:42:25;;;;;;;1.73;1.63;;;;;;;14.14;51.20;102374.78;5141853;28;20045;-81
2022/04/28 10:44:57;;;;;;;4.68;2.38;;;;;;;14.22;49.70;102367.63;5119394;28;20077;-81
2022/04/28 10:47:35;;;;;;;1.83;1.73;;;;;;;14.15;49.93;102372.13;5123813;28;20038;-81
2022/04/28 10:50:22;;;;;;;5.05;2.65;;;;;;;14.43;50.20;102368.16;5126817;28;20038;-81
2022/04/28 10:53:00;;;;;;;2.83;0.80;;;;;;;14.32;46.79;102363.94;5144766;28;20267;-80
2022/04/28 10:55:40;;;;;;;2.58;1.88;;;;;;;14.42;49.02;102364.63;5111511;28;20125;-80
2022/04/28 10:58:18;;;;;;;1.55;1.45;;;;;;;14.36;48.85;102364.75;5125162;28;20030;-80
2022/04/28 11:01:00;;;;;;;1.52;1.38;;;;;;;14.38;47.65;102362.09;5128632;28;20066;-80
2022/04/28 11:03:42;;;;;;;1.75;1.65;;;;;;;14.41;48.19;102368.22;5109765;28;20437;-81
2022/04/28 11:06:21;;;;;;;1.65;1.55;;;;;;;14.46;49.07;102363.72;5143800;28;20027;-81
2022/04/28 11:08:55;;;;;;;3.00;2.55;;;;;;;14.60;50.37;102365.22;5122905;28;20556;-80
2022/04/28 11:11:41;;;;;;;0.70;0.70;;;;;;;14.67;48.36;102353.69;5140923;28;20050;-81
2022/04/28 11:14:15;;;;;;;1.88;1.73;;;;;;;14.76;48.12;102358.78;5108477;28;20081;-80
2022/04/28 11:16:45;;;;;;;1.58;1.35;;;;;;;14.79;46.58;102352.59;5109103;28;20100;-81
2022/04/28 11:19:16;;;;;;;1.38;1.30;;;;;;;14.83;47.98;102351.63;5108488;28;20050;-80
2022/04/28 11:21:52;;;;;;;1.60;1.50;;;;;;;14.94;47.65;102351.44;5133755;28;20073;-80
2022/04/28 11:24:32;;;;;;;1.17;1.10;;;;;;;15.10;49.03;102359.94;5117157;28;20125;-81
2022/04/28 11:27:02;;;;;;;1.38;1.27;;;;;;;15.06;47.87;102352.94;5132695;28;20849;-81
2022/04/28 11:29:39;;;;;;;1.00;1.00;;;;;;;15.18;46.47;102355.38;5109031;28;20121;-80
2022/04/28 11:32:10;;;;;;;1.50;1.40;;;;;;;15.17;47.90;102348.34;5127078;28;20090;-80
2022/04/28 11:34:43;;;;;;;1.15;1.10;;;;;;;15.43;47.69;102355.72;5125659;28;20074;-80
2022/04/28 11:37:24;;;;;;;2.30;2.15;;;;;;;15.31;45.39;102355.09;5131008;28;20022;-80
2022/04/28 11:39:57;;;;;;;0.68;0.68;;;;;;;15.22;45.35;102361.47;5124011;28;20038;-80
2022/04/28 11:42:28;;;;;;;3.67;2.33;;;;;;;15.37;45.35;102347.91;5143447;28;20022;-80
2022/04/28 11:45:00;;;;;;;1.35;1.27;;;;;;;15.52;46.33;102349.38;5126647;28;20270;-81
2022/04/28 11:47:42;;;;;;;0.93;0.93;;;;;;;15.57;45.78;102339.53;5120298;28;20035;-80
2022/04/28 11:50:23;;;;;;;0.88;0.88;;;;;;;15.63;46.78;102341.19;5129302;28;20358;-80
2022/04/28 11:53:03;;;;;;;1.55;1.35;;;;;;;15.87;43.57;102339.75;5129455;28;20336;-80
2022/04/28 11:55:38;;;;;;;1.15;1.15;;;;;;;15.88;43.95;102336.22;5169340;28;20036;-80
2022/04/28 11:58:10;;;;;;;1.42;1.30;;;;;;;15.89;43.59;102337.09;5116574;28;20031;-80
2022/04/28 12:00:46;;;;;;;2.17;1.60;;;;;;;16.00;44.64;102337.69;5135225;28;20088;-80
2022/04/28 12:03:24;;;;;;;1.58;1.48;;;;;;;15.95;43.14;102346.69;5110319;28;20070;-80
2022/04/28 12:05:57;;;;;;;1.23;1.13;;;;;;;16.01;43.59;102338.59;5143736;28;20022;-80
2022/04/28 12:08:28;;;;;;;0.73;0.73;;;;;;;15.99;44.31;102333.31;5138533;28;20058;-81
2022/04/28 12:14:22;;;;;;;1.90;0.77;;;;;;;16.22;42.79;102334.53;5137904;28;20038;-80
2022/04/28 12:19:50;;;;;;;1.75;0.70;;;;;;;16.49;41.59;102338.25;5147382;28;20473;-80
2022/04/28 12:22:35;;;;;;;2.35;1.80;;;;;;;16.56;41.86;102340.72;5152914;28;20383;-80
2022/04/28 12:25:11;;;;;;;2.88;2.28;;;;;;;16.53;42.50;102339.03;5119361;28;20049;-80
2022/04/28 12:27:53;;;;;;;1.60;1.50;;;;;;;16.69;41.96;102344.81;5107848;28;20030;-81
2022/04/28 12:30:24;;;;;;;2.05;1.40;;;;;;;16.55;42.01;102323.97;5158994;28;20050;-80